Time;durP1;ratioP1;P1;durP2;ratioP2;P2;SDS_P1;SDS_P2;PMS_P1;PMS_P2;Temp;Humidity;BMP_temperature;BMP_pressure;BME280_temperature;BME280_humidity;BME280_pressure;Samples;Min_cycle;Max_cycle;Signal;HPM_P1;HPM_P2
2022/06/09 00:01:03;;;;;;;6.00;5.70;;;;;;;20.98;100.00;98699.84;5112963;28;20625;-62
2022/06/09 00:03:34;;;;;;;6.22;5.82;;;;;;;20.89;100.00;98685.59;5113117;28;20199;-62
2022/06/09 00:06:01;;;;;;;5.65;5.10;;;;;;;21.01;100.00;98710.94;5113254;28;20629;-63
2022/06/09 00:08:31;;;;;;;5.50;5.10;;;;;;;20.92;100.00;98689.78;5113098;27;20202;-62
2022/06/09 00:11:06;;;;;;;5.80;5.30;;;;;;;20.97;100.00;98706.06;5112857;28;20226;-55
2022/06/09 00:13:34;;;;;;;5.50;5.20;;;;;;;20.95;100.00;98713.28;5113069;28;20741;-56
2022/06/09 00:16:01;;;;;;;5.53;5.13;;;;;;;20.90;100.00;98704.91;5103488;27;20671;-56
2022/06/09 00:18:28;;;;;;;5.43;5.03;;;;;;;20.94;100.00;98701.88;5092282;28;20203;-56
2022/06/09 00:20:55;;;;;;;7.80;6.00;;;;;;;20.90;100.00;98713.66;5092352;28;20196;-62
2022/06/09 00:23:22;;;;;;;5.05;4.75;;;;;;;20.84;100.00;98694.88;5092124;28;20582;-56
2022/06/09 00:25:49;;;;;;;5.32;5.03;;;;;;;20.83;100.00;98699.31;5092158;28;20195;-56
2022/06/09 00:28:18;;;;;;;5.70;5.22;;;;;;;20.88;100.00;98707.66;5092563;28;20646;-62
2022/06/09 00:30:46;;;;;;;6.53;5.82;;;;;;;20.79;100.00;98702.31;5092265;28;20272;-56
2022/06/09 00:33:13;;;;;;;4.93;4.70;;;;;;;20.80;100.00;98694.28;5091996;28;20245;-60
2022/06/09 00:35:40;;;;;;;5.63;5.22;;;;;;;20.80;100.00;98698.72;5092424;28;20632;-55
2022/06/09 00:38:07;;;;;;;5.97;5.30;;;;;;;20.88;100.00;98698.94;5092431;28;20195;-55
2022/06/09 00:40:35;;;;;;;5.20;4.70;;;;;;;20.88;100.00;98699.75;5092480;28;20668;-55
2022/06/09 00:43:03;;;;;;;5.07;4.70;;;;;;;20.88;100.00;98704.22;5092392;28;20230;-60
2022/06/09 00:45:34;;;;;;;5.03;4.68;;;;;;;20.91;100.00;98701.28;5092062;28;20282;-63
2022/06/09 00:48:19;;;;;;;5.38;4.93;;;;;;;20.85;100.00;98697.38;5092037;28;20202;-62
2022/06/09 00:50:48;;;;;;;5.22;4.63;;;;;;;20.78;100.00;98688.28;5092148;28;20252;-63
2022/06/09 00:53:22;;;;;;;5.97;5.57;;;;;;;20.88;100.00;98701.56;5091924;28;20191;-64
2022/06/09 00:55:50;;;;;;;5.90;5.43;;;;;;;20.82;100.00;98689.72;5091682;28;20685;-62
2022/06/09 00:58:21;;;;;;;5.20;4.70;;;;;;;20.81;100.00;98690.69;5092020;28;20761;-63
2022/06/09 01:00:53;;;;;;;5.07;4.68;;;;;;;20.81;100.00;98689.84;5091541;28;20614;-63
2022/06/09 01:03:23;;;;;;;4.50;4.30;;;;;;;20.88;100.00;98685.75;5091565;28;20195;-63
2022/06/09 01:05:54;;;;;;;5.45;5.07;;;;;;;20.77;100.00;98688.44;5091881;28;20564;-56
2022/06/09 01:08:21;;;;;;;5.18;4.88;;;;;;;20.73;100.00;98682.59;5091380;28;20192;-64
2022/06/09 01:10:48;;;;;;;5.10;4.70;;;;;;;20.60;100.00;98674.03;5091375;28;20225;-56
2022/06/09 01:13:15;;;;;;;9.23;4.88;;;;;;;20.66;100.00;98689.31;5090236;28;20196;-63
2022/06/09 01:15:53;;;;;;;5.03;4.82;;;;;;;20.66;100.00;98681.41;5091264;28;20199;-64
2022/06/09 01:18:32;;;;;;;5.05;4.70;;;;;;;20.72;100.00;98688.81;5091391;28;20237;-64
2022/06/09 01:21:07;;;;;;;5.15;4.65;;;;;;;20.74;100.00;98689.53;5091458;28;20191;-62
2022/06/09 01:24:10;;;;;;;4.43;4.07;;;;;;;20.73;100.00;98685.22;5091217;28;20718;-62
2022/06/09 01:27:10;;;;;;;4.50;4.28;;;;;;;20.64;100.00;98689.47;5090961;28;20205;-62
2022/06/09 01:29:49;;;;;;;5.18;4.78;;;;;;;20.69;100.00;98681.16;5091010;28;20701;-62
2022/06/09 01:32:24;;;;;;;5.40;5.00;;;;;;;20.65;100.00;98690.31;5090900;28;20222;-62
2022/06/09 01:35:06;;;;;;;5.10;4.78;;;;;;;20.45;100.00;98656.81;5091288;28;20201;-62
2022/06/09 01:37:39;;;;;;;4.38;4.00;;;;;;;20.57;100.00;98679.53;5091319;28;20206;-63
2022/06/09 01:40:09;;;;;;;4.57;4.07;;;;;;;20.47;100.00;98678.63;5090960;28;20203;-63
2022/06/09 01:42:38;;;;;;;4.57;4.28;;;;;;;20.50;100.00;98678.38;5090748;28;20198;-63
2022/06/09 01:45:10;;;;;;;5.07;4.68;;;;;;;20.51;100.00;98680.06;5091058;28;20714;-63
2022/06/09 01:47:46;;;;;;;5.05;4.72;;;;;;;20.43;100.00;98693.84;5091093;28;20669;-63
2022/06/09 01:50:18;;;;;;;5.00;4.70;;;;;;;20.47;100.00;98686.53;5090687;28;20202;-62
2022/06/09 01:52:47;;;;;;;5.90;5.40;;;;;;;20.47;100.00;98686.53;5090787;28;20198;-62
2022/06/09 01:55:19;;;;;;;8.00;5.65;;;;;;;20.40;100.00;98683.59;5090472;28;20226;-64
2022/06/09 01:57:50;;;;;;;5.43;5.03;;;;;;;20.37;100.00;98685.63;5091003;28;20205;-62
2022/06/09 02:00:19;;;;;;;5.28;4.97;;;;;;;20.34;100.00;98681.41;5090700;28;20199;-63
2022/06/09 02:02:51;;;;;;;4.90;4.55;;;;;;;20.37;100.00;98680.34;5090535;28;20199;-63
2022/06/09 02:05:23;;;;;;;5.25;4.85;;;;;;;20.35;100.00;98674.34;5090598;28;20293;-57
2022/06/09 02:07:52;;;;;;;6.30;5.10;;;;;;;20.12;100.00;98648.06;5090399;28;20196;-57
2022/06/09 02:10:23;;;;;;;6.22;4.05;;;;;;;20.17;100.00;98652.97;5090666;28;20201;-55
2022/06/09 02:12:51;;;;;;;5.15;4.75;;;;;;;20.30;100.00;98680.00;5090617;28;20263;-54
2022/06/09 02:15:23;;;;;;;5.63;5.15;;;;;;;20.30;100.00;98670.28;5090510;28;20218;-55
2022/06/09 02:17:52;;;;;;;5.10;4.80;;;;;;;20.36;100.00;98673.41;5090450;28;20195;-55
2022/06/09 02:20:23;;;;;;;5.70;5.20;;;;;;;20.38;100.00;98671.47;5090335;28;20581;-56
2022/06/09 02:22:50;;;;;;;5.72;4.95;;;;;;;20.36;100.00;98673.41;5090463;28;20282;-56
2022/06/09 02:25:18;;;;;;;4.80;4.60;;;;;;;20.39;100.00;98678.44;5092342;28;20276;-56
2022/06/09 02:27:45;;;;;;;5.38;5.07;;;;;;;20.36;100.00;98678.69;5102401;28;20305;-56
2022/06/09 02:30:13;;;;;;;6.13;5.28;;;;;;;20.22;100.00;98661.31;5114742;28;20589;-57
2022/06/09 02:32:40;;;;;;;5.55;5.18;;;;;;;20.33;100.00;98673.63;5114212;28;20222;-55
2022/06/09 02:35:10;;;;;;;7.15;6.28;;;;;;;20.33;100.00;98668.34;5114843;28;20556;-57
2022/06/09 02:37:36;;;;;;;7.75;6.95;;;;;;;20.30;100.00;98670.28;5114707;28;20199;-63
2022/06/09 02:40:05;;;;;;;7.00;5.60;;;;;;;20.29;100.00;98668.63;5115073;28;20770;-56
2022/06/09 02:42:32;;;;;;;6.50;5.85;;;;;;;20.34;100.00;98670.84;5114646;28;20278;-55
2022/06/09 02:44:59;;;;;;;7.03;6.22;;;;;;;20.34;100.00;98668.22;5114840;28;20194;-61
2022/06/09 02:47:26;;;;;;;6.28;5.82;;;;;;;20.34;100.00;98667.38;5115008;28;20199;-61
2022/06/09 02:49:53;;;;;;;6.43;5.85;;;;;;;20.25;100.00;98666.34;5114747;28;20237;-62
2022/06/09 02:52:21;;;;;;;7.13;6.47;;;;;;;20.21;100.00;98664.91;5112432;28;20218;-61
2022/06/09 02:54:48;;;;;;;7.03;6.53;;;;;;;20.10;100.00;98665.78;5113240;28;20635;-62
2022/06/09 02:57:15;;;;;;;7.00;6.45;;;;;;;20.11;100.00;98670.09;5107007;28;20191;-62
2022/06/09 02:59:42;;;;;;;8.20;7.25;;;;;;;20.16;100.00;98681.13;5113068;27;20212;-61
2022/06/09 03:02:09;;;;;;;7.38;6.50;;;;;;;20.30;100.00;98664.19;5111443;28;20193;-56
2022/06/09 03:04:35;;;;;;;7.38;6.75;;;;;;;20.38;100.00;98677.59;5111781;28;20213;-56
2022/06/09 03:07:02;;;;;;;7.18;6.47;;;;;;;20.36;100.00;98673.41;5093635;28;20245;-62
2022/06/09 03:09:31;;;;;;;12.82;6.35;;;;;;;20.36;100.00;98673.41;5093087;28;20215;-56
2022/06/09 03:11:58;;;;;;;6.95;6.30;;;;;;;20.19;100.00;98651.91;5108562;28;20240;-58
2022/06/09 03:14:25;;;;;;;7.43;6.65;;;;;;;20.42;100.00;98686.09;5111679;28;20218;-55
2022/06/09 03:16:52;;;;;;;7.28;6.53;;;;;;;20.41;100.00;98674.72;5112863;28;20222;-55
2022/06/09 03:19:19;;;;;;;12.13;7.40;;;;;;;20.50;100.00;98675.75;5112266;28;20437;-54
2022/06/09 03:21:46;;;;;;;7.38;6.60;;;;;;;20.54;100.00;98671.91;5112512;28;20223;-55
2022/06/09 03:24:13;;;;;;;7.82;7.07;;;;;;;20.52;100.00;98676.47;5111464;27;20671;-56
2022/06/09 03:26:42;;;;;;;7.70;7.20;;;;;;;20.53;100.00;98675.50;5112176;28;20741;-57
2022/06/09 03:29:09;;;;;;;7.90;7.30;;;;;;;20.48;100.00;98677.66;5111036;27;20221;-57
2022/06/09 03:31:36;;;;;;;9.55;8.73;;;;;;;20.45;100.00;98684.03;5111468;28;20226;-65
2022/06/09 03:34:03;;;;;;;9.82;8.82;;;;;;;20.43;100.00;98677.22;5111982;28;20706;-66
2022/06/09 03:36:31;;;;;;;10.70;9.75;;;;;;;20.41;100.00;98674.72;5109956;28;20215;-66
2022/06/09 03:38:58;;;;;;;10.80;9.05;;;;;;;20.43;100.00;98672.75;5111736;28;20214;-66
2022/06/09 03:41:25;;;;;;;9.77;8.50;;;;;;;20.46;100.00;98675.16;5111237;27;20306;-66
2022/06/09 03:43:54;;;;;;;12.00;10.98;;;;;;;20.41;100.00;98655.44;5111003;28;20598;-66
2022/06/09 03:46:21;;;;;;;10.02;9.07;;;;;;;20.47;100.00;98660.19;5108745;28;20211;-65
2022/06/09 03:48:48;;;;;;;9.38;8.63;;;;;;;20.56;100.00;98672.59;5110194;28;20564;-66
2022/06/09 03:51:15;;;;;;;9.23;8.48;;;;;;;20.57;100.00;98655.81;5109488;28;20225;-64
2022/06/09 03:53:42;;;;;;;12.80;11.70;;;;;;;20.64;100.00;98671.00;5110044;28;20207;-65
2022/06/09 03:56:14;;;;;;;12.10;10.80;;;;;;;20.76;100.00;98677.06;5108422;27;20248;-65
2022/06/09 03:58:42;;;;;;;9.23;7.63;;;;;;;20.86;100.00;98672.69;5106292;27;20292;-66
2022/06/09 04:01:13;;;;;;;9.48;7.82;;;;;;;21.01;100.00;98675.81;5119028;27;20237;-57
2022/06/09 04:03:41;;;;;;;8.18;7.35;;;;;;;21.10;100.00;98674.22;5110300;28;20584;-57
2022/06/09 04:06:12;;;;;;;10.15;8.20;;;;;;;21.33;100.00;98686.31;5109719;27;20206;-56
2022/06/09 04:08:39;;;;;;;9.02;8.18;;;;;;;21.53;100.00;98688.06;5110117;28;20205;-57
2022/06/09 04:11:06;;;;;;;8.57;7.75;;;;;;;21.72;100.00;98684.63;5111918;28;20563;-58
2022/06/09 04:13:33;;;;;;;9.40;8.25;;;;;;;21.68;100.00;98685.84;5111916;28;20285;-53
2022/06/09 04:16:00;;;;;;;8.02;7.32;;;;;;;21.84;100.00;98682.72;5111787;28;20195;-56
2022/06/09 04:18:28;;;;;;;14.73;9.63;;;;;;;21.96;100.00;98689.56;5112035;28;20194;-57
2022/06/09 04:20:55;;;;;;;16.13;10.88;;;;;;;22.30;100.00;98690.06;5111931;28;20709;-57
2022/06/09 04:23:23;;;;;;;9.30;8.45;;;;;;;22.71;100.00;98692.41;5111939;28;20205;-63
2022/06/09 04:25:50;;;;;;;9.60;8.23;;;;;;;22.76;100.00;98690.22;5111856;28;20593;-65
2022/06/09 04:28:18;;;;;;;16.45;8.32;;;;;;;22.96;100.00;98685.72;5112071;28;20202;-59
2022/06/09 04:30:46;;;;;;;16.27;8.00;;;;;;;22.96;100.00;98690.19;5111435;28;20194;-58
2022/06/09 04:33:13;;;;;;;14.45;9.27;;;;;;;22.76;100.00;98687.59;5110957;28;20222;-60
2022/06/09 04:35:41;;;;;;;22.08;9.25;;;;;;;22.63;100.00;98688.81;5110460;28;20245;-60
2022/06/09 04:38:11;;;;;;;12.23;9.30;;;;;;;22.59;100.00;98687.41;5112373;28;20575;-59
2022/06/09 04:40:41;;;;;;;14.82;8.15;;;;;;;22.74;100.00;98680.72;5112308;28;20198;-58
2022/06/09 04:43:10;;;;;;;10.57;8.43;;;;;;;22.72;100.00;98677.38;5112319;28;20202;-57
2022/06/09 04:45:39;;;;;;;11.95;8.20;;;;;;;23.00;100.00;98681.00;5112277;28;20194;-58
2022/06/09 04:48:07;;;;;;;13.15;9.02;;;;;;;24.42;97.92;98682.28;5111862;28;20198;-60
2022/06/09 04:50:34;;;;;;;13.05;8.65;;;;;;;26.47;84.33;98681.41;5112379;28;20190;-59
2022/06/09 04:53:03;;;;;;;10.70;8.15;;;;;;;28.56;73.37;98708.66;5112026;28;20215;-58
2022/06/09 04:55:30;;;;;;;10.70;7.55;;;;;;;30.14;64.42;98706.53;5111877;28;20230;-59
2022/06/09 04:57:58;;;;;;;10.88;7.95;;;;;;;31.49;59.59;98711.94;5112143;28;20194;-59
2022/06/09 05:00:26;;;;;;;8.57;7.68;;;;;;;32.36;55.73;98722.88;5112018;27;20198;-61
2022/06/09 05:02:53;;;;;;;10.50;8.55;;;;;;;32.29;54.59;98722.84;5111995;28;20198;-59
2022/06/09 05:05:23;;;;;;;8.30;7.55;;;;;;;32.42;53.63;98735.50;5111785;28;20285;-60
2022/06/09 05:07:50;;;;;;;9.00;7.70;;;;;;;31.49;56.70;98734.19;5111931;28;20199;-59
2022/06/09 05:10:18;;;;;;;9.90;7.35;;;;;;;31.03;59.10;98732.00;5111805;28;20293;-59
2022/06/09 05:12:46;;;;;;;9.55;7.45;;;;;;;29.56;63.63;98727.00;5111665;28;20218;-58
2022/06/09 05:15:15;;;;;;;9.30;8.13;;;;;;;28.55;68.52;98723.84;5111564;28;20194;-59
2022/06/09 05:17:42;;;;;;;17.67;9.00;;;;;;;27.73;71.82;98719.91;5106054;28;20225;-58
2022/06/09 05:20:12;;;;;;;10.52;8.70;;;;;;;27.32;74.59;98719.16;5109740;28;20233;-58
2022/06/09 05:22:39;;;;;;;12.50;10.25;;;;;;;27.25;75.02;98721.66;5111402;28;20539;-59
2022/06/09 05:25:07;;;;;;;10.88;9.20;;;;;;;28.26;70.59;98721.84;5111426;28;20203;-60
2022/06/09 05:27:36;;;;;;;11.68;9.25;;;;;;;29.14;66.36;98726.72;5111293;28;20210;-60
2022/06/09 05:30:04;;;;;;;11.45;9.38;;;;;;;28.90;66.29;98717.91;5111282;28;20255;-59
2022/06/09 05:32:30;;;;;;;9.60;8.57;;;;;;;29.09;66.30;98729.09;5109568;28;20218;-60
2022/06/09 05:34:57;;;;;;;10.50;9.00;;;;;;;28.98;66.06;98718.84;5110376;28;20201;-60
2022/06/09 05:37:24;;;;;;;18.83;9.32;;;;;;;28.64;68.18;98724.63;5109803;28;20187;-59
2022/06/09 05:45:21;;;;;;;8.73;7.85;;;;;;;30.31;61.04;98725.91;5108133;28;20339;-60
2022/06/09 05:47:48;;;;;;;9.27;7.35;;;;;;;30.63;58.54;98725.44;5109665;28;20186;-60
2022/06/09 05:50:15;;;;;;;14.52;7.93;;;;;;;29.91;60.36;98716.56;5107507;28;20217;-59
2022/06/09 05:52:41;;;;;;;8.27;7.65;;;;;;;29.23;63.14;98717.63;5109392;28;20220;-59
2022/06/09 05:55:09;;;;;;;8.15;7.40;;;;;;;28.66;65.77;98714.59;5109378;28;20217;-60
2022/06/09 05:57:38;;;;;;;9.55;7.35;;;;;;;28.70;65.86;98711.38;5109540;28;20187;-60
2022/06/09 06:00:06;;;;;;;12.38;7.75;;;;;;;28.77;65.62;98698.97;5109153;28;20186;-59
2022/06/09 06:02:33;;;;;;;8.77;8.18;;;;;;;28.22;67.35;98712.53;5109453;28;20195;-59
2022/06/09 06:05:00;;;;;;;9.52;7.88;;;;;;;27.46;70.71;98708.63;5109821;28;20234;-58
2022/06/09 06:07:26;;;;;;;10.73;8.38;;;;;;;26.91;73.55;98705.88;5110882;28;20205;-59
2022/06/09 06:09:53;;;;;;;11.93;8.98;;;;;;;26.42;76.11;98693.53;5110791;28;20608;-60
2022/06/09 06:12:20;;;;;;;9.95;8.38;;;;;;;26.48;76.99;98700.88;5110741;28;20218;-60
2022/06/09 06:14:49;;;;;;;10.50;7.63;;;;;;;26.71;75.55;98693.91;5110844;28;20206;-61
2022/06/09 06:17:17;;;;;;;14.60;9.77;;;;;;;26.40;76.90;98683.06;5110795;28;20198;-60
2022/06/09 06:19:44;;;;;;;11.10;8.48;;;;;;;26.51;76.29;98685.41;5110747;28;20194;-60
2022/06/09 06:22:10;;;;;;;8.05;7.45;;;;;;;26.44;75.46;98695.03;5110362;28;20720;-58
2022/06/09 06:24:37;;;;;;;11.95;7.22;;;;;;;26.35;75.12;98701.34;5110384;28;20201;-58
2022/06/09 06:27:05;;;;;;;8.43;7.30;;;;;;;25.61;78.28;98694.97;5110181;28;20663;-57
2022/06/09 06:29:32;;;;;;;8.02;7.10;;;;;;;25.78;78.05;98693.19;5110408;28;20199;-58
2022/06/09 06:32:01;;;;;;;7.57;6.88;;;;;;;26.17;75.34;98703.28;5110588;28;20218;-60
2022/06/09 06:34:28;;;;;;;7.10;6.50;;;;;;;26.18;75.58;98695.16;5110521;28;20194;-60
2022/06/09 06:36:55;;;;;;;7.53;6.85;;;;;;;26.44;75.38;98687.06;5110607;28;20687;-60
2022/06/09 06:39:22;;;;;;;7.22;6.72;;;;;;;26.74;74.42;98689.09;5110770;28;20197;-60
2022/06/09 06:41:49;;;;;;;8.57;7.18;;;;;;;27.42;70.93;98688.66;5110659;28;20692;-60
2022/06/09 06:44:16;;;;;;;6.68;5.88;;;;;;;28.80;63.57;98695.13;5110668;28;20194;-60
2022/06/09 06:46:43;;;;;;;8.35;5.88;;;;;;;29.61;58.79;98697.84;5109970;28;20288;-61
2022/06/09 06:49:11;;;;;;;5.80;5.45;;;;;;;29.79;58.03;98699.31;5110735;28;20750;-60
2022/06/09 06:51:38;;;;;;;6.03;5.53;;;;;;;29.46;59.13;98699.66;5110501;28;20670;-61
2022/06/09 06:54:06;;;;;;;5.20;4.90;;;;;;;30.10;57.72;98704.44;5110741;28;20199;-61
2022/06/09 06:56:34;;;;;;;5.03;4.72;;;;;;;30.27;56.21;98703.19;5110442;28;20617;-60
2022/06/09 06:59:01;;;;;;;6.03;4.97;;;;;;;30.94;53.70;98695.59;5110809;28;20191;-60
2022/06/09 07:01:29;;;;;;;7.85;4.90;;;;;;;31.40;52.45;98701.34;5110421;28;20200;-61
2022/06/09 07:03:56;;;;;;;5.97;5.03;;;;;;;31.42;51.30;98694.94;5110625;28;20194;-61
2022/06/09 07:06:25;;;;;;;6.15;4.70;;;;;;;31.86;50.36;98699.94;5110003;28;20285;-61
2022/06/09 07:08:52;;;;;;;6.40;4.72;;;;;;;31.37;51.18;98698.25;5110542;28;20619;-61
2022/06/09 07:11:19;;;;;;;5.30;4.80;;;;;;;31.57;49.96;98696.50;5112038;28;20201;-61
2022/06/09 07:13:46;;;;;;;4.78;4.38;;;;;;;31.87;49.39;98693.56;5112292;28;20325;-61
2022/06/09 07:16:14;;;;;;;5.07;4.60;;;;;;;32.00;48.68;98699.81;5112912;28;20582;-61
2022/06/09 07:18:41;;;;;;;5.60;4.70;;;;;;;32.21;48.55;98695.34;5113132;28;20289;-60
2022/06/09 07:21:08;;;;;;;7.68;4.90;;;;;;;32.53;48.18;98689.22;5113498;28;20206;-61
2022/06/09 07:23:37;;;;;;;5.70;5.07;;;;;;;32.67;47.54;98680.16;5113601;28;20187;-61
2022/06/09 07:26:05;;;;;;;6.65;4.70;;;;;;;32.63;47.60;98683.44;5113592;28;20592;-62
2022/06/09 07:28:32;;;;;;;4.93;4.65;;;;;;;32.81;47.26;98681.03;5113211;28;20199;-60
2022/06/09 07:31:00;;;;;;;5.40;5.03;;;;;;;33.09;46.63;98687.00;5113500;28;20251;-61
2022/06/09 07:33:31;;;;;;;4.53;4.22;;;;;;;33.37;46.23;98677.88;5113834;28;20229;-60
2022/06/09 07:35:59;;;;;;;6.30;4.60;;;;;;;33.68;44.37;98680.69;5113839;28;20658;-58
2022/06/09 07:38:27;;;;;;;5.97;5.57;;;;;;;32.99;45.47;98675.84;5113583;28;20203;-58
2022/06/09 07:40:56;;;;;;;5.22;4.93;;;;;;;32.53;46.46;98674.97;5113536;27;20190;-60
2022/06/09 07:43:23;;;;;;;6.28;5.40;;;;;;;31.93;47.59;98637.22;5113555;28;20282;-60
2022/06/09 07:45:50;;;;;;;5.15;4.72;;;;;;;31.58;48.60;98667.81;5113410;28;20230;-58
2022/06/09 07:48:20;;;;;;;5.22;4.80;;;;;;;30.77;51.09;98662.09;5113427;28;20198;-59
2022/06/09 07:50:50;;;;;;;6.32;5.80;;;;;;;30.28;52.58;98673.56;5113448;28;20705;-59
2022/06/09 07:53:17;;;;;;;5.38;5.03;;;;;;;30.12;53.58;98668.44;5113342;28;20218;-61
2022/06/09 07:55:44;;;;;;;11.73;5.95;;;;;;;30.00;53.74;98648.56;5112962;28;20839;-60
2022/06/09 07:58:13;;;;;;;5.15;4.60;;;;;;;30.24;52.96;98656.22;5113590;28;20277;-60
2022/06/09 08:00:40;;;;;;;4.90;4.50;;;;;;;30.71;51.86;98662.84;5113313;28;20203;-59
2022/06/09 08:03:08;;;;;;;5.15;4.68;;;;;;;30.73;52.14;98658.13;5113407;28;20190;-58
2022/06/09 08:05:35;;;;;;;7.63;5.38;;;;;;;30.77;52.35;98656.72;5113232;28;20201;-58
2022/06/09 08:08:02;;;;;;;5.60;5.07;;;;;;;30.52;52.59;98642.88;5112986;28;20249;-60
2022/06/09 08:10:31;;;;;;;5.53;4.90;;;;;;;31.03;51.86;98662.31;5112906;28;20200;-60
2022/06/09 08:13:02;;;;;;;6.05;5.55;;;;;;;31.92;48.61;98669.63;5112826;28;20222;-61
2022/06/09 08:15:32;;;;;;;5.72;5.25;;;;;;;32.26;47.44;98666.06;5112985;28;20198;-60
2022/06/09 08:18:00;;;;;;;5.43;4.95;;;;;;;32.69;45.72;98659.28;5112945;28;20710;-60
2022/06/09 08:20:32;;;;;;;6.45;5.30;;;;;;;31.92;47.39;98666.97;5110411;28;20198;-61
2022/06/09 08:23:03;;;;;;;5.35;4.93;;;;;;;31.67;48.31;98659.41;5092183;28;20703;-61
2022/06/09 08:25:30;;;;;;;6.40;5.70;;;;;;;31.25;49.26;98640.81;5092455;28;20286;-58
2022/06/09 08:27:57;;;;;;;5.55;5.15;;;;;;;31.77;47.91;98659.03;5092279;28;20187;-58
2022/06/09 08:30:24;;;;;;;5.45;5.05;;;;;;;31.78;47.28;98659.88;5092308;28;20201;-61
2022/06/09 08:32:53;;;;;;;5.30;4.95;;;;;;;32.41;45.91;98659.44;5092207;28;20225;-60
2022/06/09 08:35:21;;;;;;;6.10;5.55;;;;;;;32.75;43.88;98639.66;5092066;28;20392;-59
2022/06/09 08:37:51;;;;;;;7.68;5.25;;;;;;;33.12;44.05;98642.72;5092257;28;20198;-58
2022/06/09 08:40:23;;;;;;;6.00;5.45;;;;;;;32.49;45.03;98641.50;5103021;28;20206;-59
2022/06/09 08:43:07;;;;;;;5.60;5.20;;;;;;;32.04;44.93;98636.66;5091597;28;20238;-59
2022/06/09 08:45:36;;;;;;;5.10;4.75;;;;;;;32.25;44.33;98633.00;5092278;28;20199;-59
2022/06/09 08:48:06;;;;;;;5.82;5.18;;;;;;;32.13;45.39;98623.03;5092385;28;20647;-59
2022/06/09 08:50:36;;;;;;;5.63;5.00;;;;;;;32.02;44.15;98624.44;5091879;28;20487;-59
2022/06/09 08:53:11;;;;;;;6.03;4.93;;;;;;;31.44;44.02;98621.31;5091857;28;20310;-60
2022/06/09 08:55:41;;;;;;;8.20;5.20;;;;;;;31.74;44.27;98622.69;5091521;28;20234;-61
2022/06/09 08:58:16;;;;;;;5.85;5.45;;;;;;;31.87;44.27;98610.34;5091411;28;20239;-61
2022/06/09 09:00:57;;;;;;;5.00;4.65;;;;;;;31.71;44.55;98617.75;5091888;28;20201;-60
2022/06/09 09:03:29;;;;;;;4.85;4.55;;;;;;;32.02;44.50;98606.47;5091322;28;20290;-61
2022/06/09 09:06:00;;;;;;;6.40;5.35;;;;;;;32.22;44.21;98597.66;5091535;28;20201;-61
2022/06/09 09:08:27;;;;;;;5.75;5.40;;;;;;;32.34;44.81;98579.91;5091288;28;20697;-61
2022/06/09 09:11:11;;;;;;;5.35;4.95;;;;;;;31.73;44.67;98604.94;5091372;28;20282;-60
2022/06/09 09:13:46;;;;;;;5.18;4.78;;;;;;;31.64;45.94;98603.47;5091702;28;20223;-61
2022/06/09 09:16:26;;;;;;;6.43;5.82;;;;;;;31.30;46.67;98598.13;5091464;28;20282;-61
2022/06/09 09:18:59;;;;;;;5.45;5.15;;;;;;;31.13;47.13;98592.28;5091273;28;20578;-61
2022/06/09 09:21:38;;;;;;;5.18;4.80;;;;;;;31.54;45.76;98589.59;5091582;28;20220;-60
2022/06/09 09:24:21;;;;;;;5.57;5.10;;;;;;;31.84;45.36;98591.97;5091281;28;20195;-61
2022/06/09 09:27:02;;;;;;;6.00;5.53;;;;;;;31.96;44.69;98590.34;5108750;28;20190;-61
2022/06/09 09:29:36;;;;;;;6.18;5.60;;;;;;;32.17;44.33;98590.16;5108997;28;20194;-60
2022/06/09 09:32:06;;;;;;;5.72;5.32;;;;;;;32.08;44.17;98581.50;5109081;28;20194;-61
2022/06/09 09:34:38;;;;;;;5.55;5.22;;;;;;;32.21;44.01;98578.03;5110676;28;20272;-60
2022/06/09 09:37:20;;;;;;;5.47;5.10;;;;;;;32.14;44.14;98585.25;5111318;28;20194;-60
2022/06/09 09:39:50;;;;;;;10.55;5.38;;;;;;;32.00;44.69;98579.00;5111152;28;20631;-61
2022/06/09 09:42:20;;;;;;;6.50;6.00;;;;;;;31.93;44.87;98572.00;5110056;28;20197;-58
2022/06/09 09:45:06;;;;;;;10.27;5.60;;;;;;;32.10;44.05;98552.59;5109756;28;20187;-59
2022/06/09 09:47:44;;;;;;;5.95;5.18;;;;;;;32.59;43.65;98569.38;5109801;28;20569;-60
2022/06/09 09:50:22;;;;;;;5.72;4.82;;;;;;;32.64;41.97;98566.88;5109442;28;20194;-60
2022/06/09 09:52:56;;;;;;;4.80;4.50;;;;;;;32.69;40.99;98545.59;5107931;28;20201;-60
2022/06/09 09:55:30;;;;;;;4.80;4.45;;;;;;;32.95;40.30;98550.94;5106995;28;20310;-59
2022/06/09 09:58:28;;;;;;;5.68;5.28;;;;;;;32.57;41.04;98553.44;5109314;28;20191;-60
2022/06/09 10:00:58;;;;;;;5.43;4.93;;;;;;;32.55;41.69;98552.00;5086030;28;20197;-60
2022/06/09 10:09:15;;;;;;;5.68;5.28;;;;;;;31.93;44.75;98545.97;5108174;28;20309;-60
2022/06/09 10:11:54;;;;;;;6.53;5.93;;;;;;;31.49;47.97;98537.59;5107948;28;20193;-59
2022/06/09 10:14:46;;;;;;;6.70;6.10;;;;;;;30.84;51.31;98534.34;5107352;28;20220;-60
2022/06/09 10:17:39;;;;;;;9.18;5.72;;;;;;;29.91;54.67;98537.28;5108543;28;20283;-61
2022/06/09 10:20:26;;;;;;;5.88;5.55;;;;;;;29.18;56.82;98527.56;5107542;28;20274;-60
2022/06/09 10:23:02;;;;;;;6.03;5.60;;;;;;;29.03;58.22;98530.25;5108584;28;20584;-60
2022/06/09 10:25:35;;;;;;;7.63;6.90;;;;;;;28.85;57.83;98524.47;5107793;28;20653;-60
2022/06/09 10:28:14;;;;;;;7.47;6.70;;;;;;;28.92;57.25;98528.06;5106939;28;20278;-60
2022/06/09 10:30:47;;;;;;;6.30;5.97;;;;;;;28.80;57.64;98517.00;5109249;28;20195;-60
2022/06/09 10:33:25;;;;;;;7.15;6.25;;;;;;;28.68;56.78;98518.44;5109675;28;20226;-60
2022/06/09 10:36:00;;;;;;;7.10;6.43;;;;;;;28.69;56.88;98506.75;5110516;28;20191;-60
2022/06/09 10:38:33;;;;;;;6.10;5.70;;;;;;;28.84;55.78;98510.28;5110925;28;20629;-60
2022/06/09 10:41:04;;;;;;;10.30;6.55;;;;;;;28.71;56.18;98499.38;5110626;28;20191;-60
2022/06/09 10:43:36;;;;;;;6.28;5.97;;;;;;;28.83;56.56;98489.09;5110509;28;20198;-62
2022/06/09 10:46:13;;;;;;;5.57;5.13;;;;;;;28.89;55.74;98499.84;5112219;28;20201;-61
2022/06/09 10:57:30;;;;;;;6.60;6.20;;;;;;;28.68;59.09;98481.06;5114577;28;20210;-60
2022/06/09 11:00:00;;;;;;;10.20;6.15;;;;;;;28.49;58.60;98481.59;5114504;28;20243;-60
2022/06/09 11:02:32;;;;;;;6.53;5.93;;;;;;;28.34;58.50;98459.41;5114475;28;20206;-60
2022/06/09 11:05:01;;;;;;;6.30;6.00;;;;;;;28.20;59.69;98438.88;5114396;28;20195;-60
2022/06/09 11:07:48;;;;;;;7.45;6.65;;;;;;;28.29;59.56;98459.97;5112775;28;20277;-60
2022/06/09 11:10:27;;;;;;;6.47;6.05;;;;;;;28.26;59.25;98454.16;5112793;28;20622;-61
2022/06/09 11:13:17;;;;;;;8.07;6.03;;;;;;;28.36;59.20;98449.38;5114224;28;20589;-60
2022/06/09 11:15:50;;;;;;;6.20;5.80;;;;;;;28.47;57.88;98443.59;5112254;28;20198;-60
2022/06/09 11:18:28;;;;;;;10.32;6.88;;;;;;;28.59;57.14;98443.94;5114480;28;20191;-60
2022/06/09 11:21:15;;;;;;;6.00;5.68;;;;;;;28.70;57.09;98416.78;5114047;28;20194;-60
2022/06/09 11:23:57;;;;;;;6.28;5.20;;;;;;;28.91;55.82;98435.56;5113990;28;20302;-61
2022/06/09 11:26:38;;;;;;;5.72;5.32;;;;;;;28.66;56.00;98443.06;5114214;28;20297;-61
2022/06/09 11:29:18;;;;;;;5.10;4.88;;;;;;;28.53;56.50;98416.16;5114275;28;20198;-61
2022/06/09 11:31:58;;;;;;;5.90;5.32;;;;;;;28.58;57.34;98411.09;5112748;28;20655;-60
2022/06/09 11:34:45;;;;;;;9.15;5.53;;;;;;;28.41;56.38;98417.63;5107498;28;20305;-60
2022/06/09 11:37:24;;;;;;;6.47;5.68;;;;;;;28.58;56.94;98431.63;5113586;28;20222;-61
2022/06/09 11:40:02;;;;;;;6.85;6.15;;;;;;;28.79;55.27;98427.19;5113744;28;20281;-61
2022/06/09 11:42:48;;;;;;;5.68;5.28;;;;;;;28.67;54.38;98434.00;5113660;28;20204;-60
2022/06/09 11:45:25;;;;;;;4.97;4.68;;;;;;;28.64;53.38;98434.38;5113702;28;20229;-61
2022/06/09 11:47:55;;;;;;;5.50;5.03;;;;;;;28.55;54.37;98438.16;5113663;28;20204;-61
2022/06/09 11:50:28;;;;;;;5.55;5.05;;;;;;;28.53;55.89;98434.84;5113849;28;20281;-61
2022/06/09 11:52:58;;;;;;;5.40;5.00;;;;;;;28.55;55.64;98427.50;5113615;28;20197;-61
2022/06/09 11:58:45;;;;;;;5.32;5.00;;;;;;;28.81;54.20;98449.22;5112564;28;20189;-58
2022/06/09 12:01:26;;;;;;;5.10;4.70;;;;;;;28.73;53.40;98451.13;5104929;28;20226;-59
2022/06/09 12:04:03;;;;;;;6.05;5.75;;;;;;;28.48;55.46;98453.25;5113515;28;20187;-58
2022/06/09 12:06:45;;;;;;;5.70;5.40;;;;;;;28.47;55.45;98449.75;5113123;28;20194;-58
2022/06/09 12:09:25;;;;;;;4.72;4.45;;;;;;;28.57;53.59;98440.63;5113218;28;20190;-58